Lewisburg, Ohio
Current Conditions -  °F | °C
As of 3:56 PM on Saturday 25 Oct 2014 (Local Time) from KDAY Reporting Station
Few Clouds Few Clouds  
Wind Chill: 75°   Ceiling: Unl
Heat Index: 75°   Visibility: 10mi
Dew Point: 53°   Wind: 20mph
Humidity: 46%   Direction: 270°W
Pressure: 29.89"   Gusts: NA
Location:  39.85°N, 84.54°W
Report Text: KDAY 251956Z 27017KT 10SM FEW250 24/12 A2989 RMK AO2 SLP118 T02390117
Loading
Personal Weather Stations






























Interactive Weather Map
Tropical Storm Tracking
New forecast layout! Learn more

10-Day Weather Forecast

Advertisements
Track Severe Weather on mobile